Аэропорт: Алматы. Алма-Ата

ICAO: UAAA

METAR:
2018/05/20 19:30
UAAA 201930Z 15002MPS 9999 FEW100 08/03 Q1022 R23L/CLRD65 NOSIG
METAR:
2018/05/20 18:18
TAF TAF UAAA 201700Z 2018/2118 16005MPS 9999 SCT050CB BKN100 TX23/2109Z TN07/2101Z 
      TEMPO 2018/2022 20005MPS 3000 BR FU 
      BECMG 2101/2102 04006MPS